createdAt,value
2017-09-07T00:00:31.907Z,15.36
2017-09-07T00:01:12.506Z,15.39
2017-09-07T00:01:53.108Z,15.28
2017-09-07T00:02:33.694Z,15.37
2017-09-07T00:03:14.288Z,15.29
2017-09-07T00:03:54.891Z,15.29
2017-09-07T00:04:35.473Z,15.31
2017-09-07T00:05:16.086Z,15.28
2017-09-07T00:05:56.672Z,15.28
2017-09-07T00:06:37.289Z,15.31
2017-09-07T00:07:17.872Z,15.33
2017-09-07T00:07:58.444Z,15.25
2017-09-07T00:08:39.050Z,15.31
2017-09-07T00:09:19.638Z,15.39
2017-09-07T00:10:00.261Z,15.33
2017-09-07T00:10:40.861Z,15.24
2017-09-07T00:11:21.450Z,15.28
2017-09-07T00:12:02.052Z,15.28
2017-09-07T00:12:42.680Z,15.29
2017-09-07T00:13:23.241Z,15.31
2017-09-07T00:14:03.864Z,15.27
2017-09-07T00:14:44.472Z,15.33
2017-09-07T00:15:25.066Z,15.29
2017-09-07T00:16:05.684Z,15.25
2017-09-07T00:16:46.274Z,15.27
2017-09-07T00:17:26.854Z,15.28
2017-09-07T00:18:07.470Z,15.27
2017-09-07T00:18:48.013Z,15.24
2017-09-07T00:19:28.586Z,15.28
2017-09-07T00:20:09.177Z,15.29
2017-09-07T00:20:49.764Z,15.21
2017-09-07T00:21:30.369Z,15.22
2017-09-07T00:22:10.978Z,15.25
2017-09-07T00:22:51.538Z,15.25
2017-09-07T00:23:32.122Z,15.24
2017-09-07T00:24:12.726Z,15.29
2017-09-07T00:24:53.289Z,15.24
2017-09-07T00:25:33.867Z,15.24
2017-09-07T00:26:14.476Z,15.25
2017-09-07T00:26:55.034Z,15.21
2017-09-07T00:27:35.612Z,15.25
2017-09-07T00:28:16.234Z,15.18
2017-09-07T00:28:56.832Z,15.33
2017-09-07T00:29:37.418Z,15.27
2017-09-07T00:30:17.993Z,15.22
2017-09-07T00:30:58.553Z,15.19
2017-09-07T00:31:39.127Z,15.21
2017-09-07T00:32:19.739Z,15.15
2017-09-07T00:33:00.334Z,15.17
2017-09-07T00:33:40.911Z,15.17
2017-09-07T00:34:21.513Z,15.18
2017-09-07T00:35:02.089Z,15.17
2017-09-07T00:35:42.687Z,15.19
2017-09-07T00:36:23.283Z,15.09
2017-09-07T00:37:03.866Z,15.11
2017-09-07T00:37:44.473Z,15.15
2017-09-07T00:38:25.035Z,15.14
2017-09-07T00:39:05.608Z,15.17
2017-09-07T00:39:46.174Z,15.17
2017-09-07T00:40:26.820Z,15.21
2017-09-07T00:41:07.403Z,15.11
2017-09-07T00:41:47.981Z,15.14
2017-09-07T00:42:28.566Z,15.18
2017-09-07T00:43:09.153Z,15.11
2017-09-07T00:43:49.749Z,15.11
2017-09-07T00:44:30.319Z,15.15
2017-09-07T00:45:10.917Z,15.17
2017-09-07T00:45:51.533Z,15.1
2017-09-07T00:46:32.119Z,15.07
2017-09-07T00:47:12.707Z,15.15
2017-09-07T00:47:53.292Z,15.14
2017-09-07T00:48:33.909Z,15.15
2017-09-07T00:49:14.477Z,15.15
2017-09-07T00:49:55.077Z,15.11
2017-09-07T00:50:35.672Z,15.1
2017-09-07T00:51:16.251Z,15.06
2017-09-07T00:51:56.831Z,15.04
2017-09-07T00:52:37.407Z,14.99
2017-09-07T00:53:17.984Z,15.03
2017-09-07T00:53:58.575Z,15.02
2017-09-07T00:54:39.157Z,15.03
2017-09-07T00:55:19.764Z,14.96
2017-09-07T00:56:00.343Z,15
2017-09-07T00:56:40.930Z,15.02
2017-09-07T00:57:21.551Z,14.99
2017-09-07T00:58:02.121Z,15
2017-09-07T00:58:42.743Z,14.94
2017-09-07T00:59:23.299Z,15.09
2017-09-07T01:00:03.878Z,14.97
2017-09-07T01:00:44.479Z,15.03
2017-09-07T01:01:25.096Z,14.94
2017-09-07T01:02:05.668Z,14.94
2017-09-07T01:02:46.325Z,14.91
2017-09-07T01:03:26.905Z,14.99
2017-09-07T01:04:07.511Z,14.91
2017-09-07T01:04:48.124Z,15
2017-09-07T01:05:28.708Z,14.91
2017-09-07T01:06:09.307Z,14.96
2017-09-07T01:06:49.880Z,14.91
2017-09-07T01:07:30.450Z,14.88
2017-09-07T01:08:11.052Z,14.96
2017-09-07T01:08:51.632Z,14.88
2017-09-07T01:09:32.193Z,14.96
2017-09-07T01:10:12.805Z,14.86
2017-09-07T01:10:53.434Z,14.99
2017-09-07T01:11:34.013Z,14.89
2017-09-07T01:12:14.583Z,14.86
2017-09-07T01:12:55.136Z,14.89
2017-09-07T01:13:35.697Z,14.86
2017-09-07T01:14:16.256Z,14.99
2017-09-07T01:14:56.876Z,14.84
2017-09-07T01:15:37.457Z,14.94
2017-09-07T01:16:18.051Z,14.92
2017-09-07T01:16:58.630Z,14.91
2017-09-07T01:17:39.239Z,14.85
2017-09-07T01:18:19.837Z,14.89
2017-09-07T01:19:00.403Z,14.84
2017-09-07T01:19:41.032Z,14.89
2017-09-07T01:20:21.626Z,14.85
2017-09-07T01:21:02.212Z,14.91
2017-09-07T01:21:42.789Z,14.89
2017-09-07T01:22:23.369Z,14.89
2017-09-07T01:23:03.934Z,14.84
2017-09-07T01:23:44.496Z,14.89
2017-09-07T01:24:25.064Z,14.84
2017-09-07T01:25:05.642Z,14.81
2017-09-07T01:25:46.236Z,14.84
2017-09-07T01:26:26.798Z,14.82
2017-09-07T01:27:07.360Z,14.88
2017-09-07T01:27:47.945Z,14.85
2017-09-07T01:28:28.507Z,14.85
2017-09-07T01:29:09.089Z,14.79
2017-09-07T01:29:49.673Z,14.79
2017-09-07T01:30:30.250Z,14.79
2017-09-07T01:31:10.816Z,14.84
2017-09-07T01:31:51.394Z,14.81
2017-09-07T01:32:31.979Z,14.78
2017-09-07T01:33:12.539Z,14.73
2017-09-07T01:33:53.147Z,14.82
2017-09-07T01:34:33.716Z,14.69
2017-09-07T01:35:14.316Z,14.69
2017-09-07T01:35:54.896Z,14.69
2017-09-07T01:36:35.511Z,14.68
2017-09-07T01:37:16.098Z,14.69
2017-09-07T01:37:56.667Z,14.72
2017-09-07T01:38:37.242Z,14.77
2017-09-07T01:39:17.824Z,14.68
2017-09-07T01:39:58.413Z,14.66
2017-09-07T01:40:38.996Z,14.68
2017-09-07T01:41:19.546Z,14.68
2017-09-07T01:42:00.124Z,14.69
2017-09-07T01:42:40.728Z,14.6
2017-09-07T01:43:21.307Z,14.6
2017-09-07T01:44:01.877Z,14.58
2017-09-07T01:44:42.469Z,14.58
2017-09-07T01:45:23.082Z,14.59
2017-09-07T01:46:03.662Z,14.59
2017-09-07T01:46:44.255Z,14.62
2017-09-07T01:47:24.832Z,14.55
2017-09-07T01:48:05.393Z,14.63
2017-09-07T01:48:45.974Z,14.6
2017-09-07T01:49:26.545Z,14.66
2017-09-07T01:50:07.145Z,14.59
2017-09-07T01:50:47.717Z,14.55
2017-09-07T01:51:28.285Z,14.58
2017-09-07T01:52:08.864Z,14.51
2017-09-07T01:52:49.443Z,14.58
2017-09-07T01:53:29.993Z,14.48
2017-09-07T01:54:10.560Z,14.48
2017-09-07T01:54:51.151Z,14.66
2017-09-07T01:55:31.718Z,14.54
2017-09-07T01:56:12.283Z,14.54
2017-09-07T01:56:52.867Z,14.45
2017-09-07T01:57:33.437Z,14.43
2017-09-07T01:58:14.002Z,14.48
2017-09-07T01:58:54.581Z,14.62
2017-09-07T01:59:35.170Z,14.5
2017-09-07T02:00:15.747Z,14.53
2017-09-07T02:00:56.303Z,14.48
2017-09-07T02:01:36.864Z,14.48
2017-09-07T02:02:17.431Z,14.44
2017-09-07T02:02:58.047Z,14.44
2017-09-07T02:03:38.625Z,14.47
2017-09-07T02:04:19.185Z,14.51
2017-09-07T02:04:59.761Z,14.55
2017-09-07T02:05:40.335Z,14.47
2017-09-07T02:06:20.899Z,14.44
2017-09-07T02:07:01.508Z,14.47
2017-09-07T02:07:42.093Z,14.36
2017-09-07T02:08:22.660Z,14.5
2017-09-07T02:09:03.251Z,14.37
2017-09-07T02:09:43.830Z,14.45
2017-09-07T02:10:24.387Z,14.37
2017-09-07T02:11:04.964Z,14.35
2017-09-07T02:11:45.550Z,14.41
2017-09-07T02:12:26.107Z,14.37
2017-09-07T02:13:06.776Z,14.47
2017-09-07T02:13:47.395Z,14.32
2017-09-07T02:14:27.952Z,14.36
2017-09-07T02:15:08.530Z,14.45
2017-09-07T02:15:49.126Z,14.4
2017-09-07T02:16:29.704Z,14.53
2017-09-07T02:17:10.262Z,14.41
2017-09-07T02:17:50.835Z,14.47
2017-09-07T02:18:31.397Z,14.48
2017-09-07T02:19:12.002Z,14.48
2017-09-07T02:19:52.563Z,14.36
2017-09-07T02:20:33.151Z,14.47
2017-09-07T02:21:13.720Z,14.41
2017-09-07T02:21:54.299Z,14.47
2017-09-07T02:22:34.877Z,14.44
2017-09-07T02:23:16.255Z,14.32
2017-09-07T02:23:57.159Z,14.37
2017-09-07T02:24:37.750Z,14.45
2017-09-07T02:25:18.331Z,14.41
2017-09-07T02:25:58.920Z,14.48
2017-09-07T02:26:39.507Z,14.4
2017-09-07T02:27:20.069Z,14.45
2017-09-07T02:28:00.649Z,14.37
2017-09-07T02:28:41.226Z,14.35
2017-09-07T02:29:21.796Z,14.44
2017-09-07T02:30:02.363Z,14.36
2017-09-07T02:30:42.993Z,14.43
2017-09-07T02:31:23.569Z,14.41
2017-09-07T02:32:04.128Z,14.37
2017-09-07T02:32:44.713Z,14.35
2017-09-07T02:33:25.278Z,14.41
2017-09-07T02:34:05.861Z,14.41
2017-09-07T02:34:46.446Z,14.36
2017-09-07T02:35:27.013Z,14.3
2017-09-07T02:36:07.598Z,14.33
2017-09-07T02:36:48.173Z,14.3
2017-09-07T02:37:28.803Z,14.29
2017-09-07T02:38:09.312Z,14.28
2017-09-07T02:38:49.892Z,14.28
2017-09-07T02:39:30.467Z,14.23
2017-09-07T02:40:11.026Z,14.17
2017-09-07T02:40:51.610Z,14.22
2017-09-07T02:41:32.177Z,14.22
2017-09-07T02:42:12.771Z,14.2
2017-09-07T02:42:53.329Z,14.18
2017-09-07T02:43:33.881Z,14.18
2017-09-07T02:44:14.452Z,14.2
2017-09-07T02:44:55.027Z,14.32
2017-09-07T02:45:35.603Z,14.3
2017-09-07T02:46:16.197Z,14.3
2017-09-07T02:46:56.822Z,14.23
2017-09-07T02:47:37.448Z,14.26
2017-09-07T02:48:18.019Z,14.29
2017-09-07T02:48:58.572Z,14.23
2017-09-07T02:49:39.147Z,14.26
2017-09-07T02:50:19.737Z,14.28
2017-09-07T02:51:00.297Z,14.29
2017-09-07T02:51:40.881Z,14.29
2017-09-07T02:52:21.468Z,14.26
2017-09-07T02:53:02.026Z,14.25
2017-09-07T02:53:42.638Z,14.28
2017-09-07T02:54:23.234Z,14.2
2017-09-07T02:55:03.854Z,14.23
2017-09-07T02:55:44.426Z,14.26
2017-09-07T02:56:24.980Z,14.18
2017-09-07T02:57:05.546Z,14.26
2017-09-07T02:57:46.118Z,14.29
2017-09-07T02:58:26.701Z,14.25
2017-09-07T02:59:07.278Z,14.25
2017-09-07T02:59:47.833Z,14.28
2017-09-07T03:00:28.422Z,14.25
2017-09-07T03:01:08.990Z,14.3
2017-09-07T03:01:49.571Z,14.26
2017-09-07T03:02:30.139Z,14.28
2017-09-07T03:03:10.706Z,14.28
2017-09-07T03:03:51.278Z,14.29
2017-09-07T03:04:31.850Z,14.26
2017-09-07T03:05:12.423Z,14.32
2017-09-07T03:05:52.989Z,14.29
2017-09-07T03:06:33.547Z,14.23
2017-09-07T03:07:14.115Z,14.26
2017-09-07T03:07:54.683Z,14.25
2017-09-07T03:08:35.275Z,14.29
2017-09-07T03:09:15.844Z,14.2
2017-09-07T03:09:56.411Z,14.17
2017-09-07T03:10:36.983Z,14.15
2017-09-07T03:11:17.566Z,14.18
2017-09-07T03:11:58.129Z,14.18
2017-09-07T03:12:38.701Z,14.18
2017-09-07T03:13:19.273Z,14.22
2017-09-07T03:13:59.837Z,14.18
2017-09-07T03:14:40.435Z,14.25
2017-09-07T03:15:21.007Z,14.26
2017-09-07T03:16:01.575Z,14.23
2017-09-07T03:16:42.146Z,14.26
2017-09-07T03:17:22.707Z,14.22
2017-09-07T03:18:03.270Z,14.25
2017-09-07T03:18:43.867Z,14.25
2017-09-07T03:19:24.429Z,14.2
2017-09-07T03:20:04.996Z,14.17
2017-09-07T03:20:45.586Z,14.2
2017-09-07T03:21:26.142Z,14.18
2017-09-07T03:22:06.706Z,14.18
2017-09-07T03:22:47.312Z,14.17
2017-09-07T03:23:27.878Z,14.2
2017-09-07T03:24:08.470Z,14.18
2017-09-07T03:24:49.125Z,14.12
2017-09-07T03:25:29.735Z,14.18
2017-09-07T03:26:10.302Z,14.17
2017-09-07T03:26:50.899Z,14.2
2017-09-07T03:27:31.465Z,14.18
2017-09-07T03:28:12.064Z,14.17
2017-09-07T03:28:52.635Z,14.15
2017-09-07T03:29:33.207Z,14.15
2017-09-07T03:30:13.777Z,14.18
2017-09-07T03:30:54.341Z,14.2
2017-09-07T03:31:34.910Z,14.17
2017-09-07T03:32:15.490Z,14.2
2017-09-07T03:32:56.060Z,14.1
2017-09-07T03:33:36.631Z,14.17
2017-09-07T03:34:17.198Z,14.14
2017-09-07T03:34:57.755Z,14.14
2017-09-07T03:35:38.331Z,14.12
2017-09-07T03:36:18.919Z,14.12
2017-09-07T03:36:59.493Z,14.14
2017-09-07T03:37:40.058Z,14.12
2017-09-07T03:38:20.627Z,14.11
2017-09-07T03:39:01.196Z,14.18
2017-09-07T03:39:41.784Z,14.12
2017-09-07T03:40:22.358Z,14.11
2017-09-07T03:41:02.943Z,14.12
2017-09-07T03:41:43.513Z,14.17
2017-09-07T03:42:24.096Z,14.25
2017-09-07T03:43:04.651Z,14.12
2017-09-07T03:43:45.208Z,14.11
2017-09-07T03:44:25.830Z,14.14
2017-09-07T03:45:06.403Z,14.15
2017-09-07T03:45:47.024Z,14.12
2017-09-07T03:46:27.674Z,14.17
2017-09-07T03:47:08.244Z,14.14
2017-09-07T03:47:48.866Z,14.18
2017-09-07T03:48:29.415Z,14.22
2017-09-07T03:49:09.981Z,14.15
2017-09-07T03:49:50.543Z,14.22
2017-09-07T03:50:31.157Z,14.1
2017-09-07T03:51:11.717Z,14.18
2017-09-07T03:51:52.296Z,14.17
2017-09-07T03:52:32.881Z,14.17
2017-09-07T03:53:13.449Z,14.14
2017-09-07T03:53:54.026Z,14.18
2017-09-07T03:54:34.612Z,14.11
2017-09-07T03:55:15.183Z,14.2
2017-09-07T03:55:55.761Z,14.14
2017-09-07T03:56:36.328Z,14.22
2017-09-07T03:57:16.917Z,14.17
2017-09-07T03:57:57.484Z,14.17
2017-09-07T03:58:38.039Z,14.12
2017-09-07T03:59:18.607Z,14.1
2017-09-07T03:59:59.193Z,14.05
2017-09-07T04:00:39.754Z,14.11
2017-09-07T04:01:20.326Z,14.17
2017-09-07T04:02:00.894Z,14.17
2017-09-07T04:02:41.444Z,14.14
2017-09-07T04:03:22.012Z,14.12
2017-09-07T04:04:02.595Z,14.2
2017-09-07T04:04:43.185Z,14.03
2017-09-07T04:05:23.757Z,14.1
2017-09-07T04:06:04.325Z,14.08
2017-09-07T04:06:44.881Z,14.1
2017-09-07T04:07:25.444Z,14.1
2017-09-07T04:08:06.034Z,14.11
2017-09-07T04:08:46.604Z,14.08
2017-09-07T04:09:27.171Z,14.14
2017-09-07T04:10:07.722Z,14.12
2017-09-07T04:10:48.309Z,14.1
2017-09-07T04:11:28.904Z,14.14
2017-09-07T04:12:09.480Z,14.11
2017-09-07T04:12:50.045Z,14.12
2017-09-07T04:13:30.636Z,14.14
2017-09-07T04:14:11.208Z,14.1
2017-09-07T04:14:51.786Z,14.14
2017-09-07T04:15:32.370Z,14.17
2017-09-07T04:16:12.934Z,14.11
2017-09-07T04:16:53.506Z,14.1
2017-09-07T04:17:34.064Z,14.14
2017-09-07T04:18:14.677Z,14.08
2017-09-07T04:18:55.255Z,14.07
2017-09-07T04:19:35.817Z,14.07
2017-09-07T04:20:16.410Z,14.11
2017-09-07T04:20:56.973Z,14.07
2017-09-07T04:21:37.541Z,14.04
2017-09-07T04:22:18.109Z,14.05
2017-09-07T04:22:58.702Z,13.96
2017-09-07T04:23:39.266Z,14.05
2017-09-07T04:24:19.830Z,14
2017-09-07T04:25:00.407Z,13.96
2017-09-07T04:25:40.965Z,13.99
2017-09-07T04:26:21.533Z,13.99
2017-09-07T04:27:02.095Z,13.96
2017-09-07T04:27:42.675Z,14.05
2017-09-07T04:28:23.245Z,14.07
2017-09-07T04:29:03.870Z,13.97
2017-09-07T04:29:44.460Z,13.9
2017-09-07T04:30:25.014Z,14.04
2017-09-07T04:31:05.598Z,14.05
2017-09-07T04:31:46.160Z,14.07
2017-09-07T04:32:26.748Z,13.96
2017-09-07T04:33:07.401Z,14.04
2017-09-07T04:33:47.975Z,13.95
2017-09-07T04:34:28.596Z,14.08
2017-09-07T04:35:09.152Z,13.96
2017-09-07T04:35:49.712Z,13.95
2017-09-07T04:36:30.277Z,13.97
2017-09-07T04:37:10.850Z,13.99
2017-09-07T04:37:51.457Z,13.99
2017-09-07T04:38:32.057Z,14.05
2017-09-07T04:39:12.657Z,14.05
2017-09-07T04:39:53.236Z,14.1
2017-09-07T04:40:33.827Z,13.99
2017-09-07T04:41:15.111Z,14.05
2017-09-07T04:41:55.689Z,13.96
2017-09-07T04:42:36.263Z,14.04
2017-09-07T04:43:16.823Z,13.99
2017-09-07T04:43:57.378Z,14
2017-09-07T04:44:37.940Z,14.04
2017-09-07T04:45:18.502Z,14.1
2017-09-07T04:45:59.059Z,13.96
2017-09-07T04:46:39.630Z,14.04
2017-09-07T04:47:20.202Z,13.99
2017-09-07T04:48:00.774Z,13.99
2017-09-07T04:48:41.353Z,14.04
2017-09-07T04:49:21.917Z,13.97
2017-09-07T04:50:02.482Z,14.05
2017-09-07T04:50:43.052Z,13.99
2017-09-07T04:51:23.611Z,14.05
2017-09-07T04:52:04.181Z,14.04
2017-09-07T04:52:44.769Z,13.99
2017-09-07T04:53:25.343Z,14.04
2017-09-07T04:54:05.915Z,13.97
2017-09-07T04:54:46.482Z,13.99
2017-09-07T04:55:27.036Z,14.04
2017-09-07T04:56:07.612Z,14.08
2017-09-07T04:56:48.205Z,14.1
2017-09-07T04:57:28.764Z,14.07
2017-09-07T04:58:09.338Z,14.03
2017-09-07T04:58:49.919Z,14.04
2017-09-07T04:59:30.470Z,14.07
2017-09-07T05:00:11.049Z,14.04
2017-09-07T05:00:51.638Z,14.03
2017-09-07T05:01:32.217Z,14.08
2017-09-07T05:02:12.805Z,14.07
2017-09-07T05:02:53.397Z,14.08
2017-09-07T05:03:33.990Z,13.99
2017-09-07T05:04:14.606Z,14.07
2017-09-07T05:04:55.171Z,14.04
2017-09-07T05:05:35.733Z,14.11
2017-09-07T05:06:16.316Z,14.05
2017-09-07T05:06:56.901Z,14.04
2017-09-07T05:07:37.511Z,14.07
2017-09-07T05:08:18.081Z,14.04
2017-09-07T05:08:58.660Z,14.08
2017-09-07T05:09:39.222Z,14.08
2017-09-07T05:10:19.796Z,14.11
2017-09-07T05:11:00.365Z,14.05
2017-09-07T05:11:40.960Z,14.1
2017-09-07T05:12:21.549Z,14.14
2017-09-07T05:13:02.126Z,14.1
2017-09-07T05:13:42.682Z,14.17
2017-09-07T05:14:23.311Z,14.22
2017-09-07T05:15:03.875Z,14.26
2017-09-07T05:15:44.468Z,14.28
2017-09-07T05:16:25.051Z,14.26
2017-09-07T05:17:05.625Z,14.3
2017-09-07T05:17:46.199Z,14.29
2017-09-07T05:18:26.774Z,14.26
2017-09-07T05:19:07.357Z,14.22
2017-09-07T05:19:47.933Z,14.18
2017-09-07T05:20:28.497Z,14.26
2017-09-07T05:21:09.058Z,14.22
2017-09-07T05:21:49.631Z,14.26
2017-09-07T05:22:30.200Z,14.3
2017-09-07T05:23:10.763Z,14.3
2017-09-07T05:23:51.337Z,14.3
2017-09-07T05:24:31.915Z,14.29
2017-09-07T05:25:12.481Z,14.26
2017-09-07T05:25:53.064Z,14.32
2017-09-07T05:26:33.651Z,14.29
2017-09-07T05:27:14.234Z,14.29
2017-09-07T05:27:54.781Z,14.22
2017-09-07T05:28:35.356Z,14.35
2017-09-07T05:29:16.795Z,14.23
2017-09-07T05:29:57.363Z,14.32
2017-09-07T05:30:37.938Z,14.33
2017-09-07T05:31:18.548Z,14.33
2017-09-07T05:31:59.675Z,14.33
2017-09-07T05:32:40.249Z,14.36
2017-09-07T05:33:20.815Z,14.36
2017-09-07T05:34:01.377Z,14.36
2017-09-07T05:34:41.944Z,14.36
2017-09-07T05:35:22.555Z,14.36
2017-09-07T05:36:03.132Z,14.44
2017-09-07T05:36:43.716Z,14.32
2017-09-07T05:37:24.565Z,14.37
2017-09-07T05:38:05.136Z,14.41
2017-09-07T05:38:45.857Z,14.45
2017-09-07T05:39:26.438Z,14.53
2017-09-07T05:40:07.019Z,14.48
2017-09-07T05:40:47.579Z,14.53
2017-09-07T05:41:28.151Z,14.5
2017-09-07T05:42:08.737Z,14.53
2017-09-07T05:42:49.482Z,14.58
2017-09-07T05:43:30.050Z,14.59
2017-09-07T05:44:10.626Z,14.53
2017-09-07T05:44:51.225Z,14.55
2017-09-07T05:45:31.797Z,14.51
2017-09-07T05:46:12.651Z,14.5
2017-09-07T05:46:53.211Z,14.53
2017-09-07T05:47:33.793Z,14.5
2017-09-07T05:48:14.353Z,14.58
2017-09-07T05:48:54.926Z,14.58
2017-09-07T05:49:35.489Z,14.54
2017-09-07T05:50:16.057Z,14.5
2017-09-07T05:50:56.943Z,14.53
2017-09-07T05:51:37.397Z,14.47
2017-09-07T05:52:17.957Z,14.58
2017-09-07T05:52:58.533Z,14.5
2017-09-07T05:53:39.104Z,14.65
2017-09-07T05:54:19.690Z,14.53
2017-09-07T05:55:00.244Z,14.48
2017-09-07T05:55:40.809Z,14.53
2017-09-07T05:56:21.368Z,14.54
2017-09-07T05:57:01.938Z,14.51
2017-09-07T05:57:42.549Z,14.47
2017-09-07T05:58:23.612Z,14.54
2017-09-07T05:59:04.349Z,14.48
2017-09-07T05:59:44.928Z,14.43
2017-09-07T06:00:25.615Z,14.48
2017-09-07T06:01:06.179Z,14.66
2017-09-07T06:01:46.745Z,14.48
2017-09-07T06:02:27.347Z,14.6
2017-09-07T06:03:07.953Z,14.47
2017-09-07T06:03:48.525Z,14.54
2017-09-07T06:04:29.122Z,14.53
2017-09-07T06:05:09.699Z,14.51
2017-09-07T06:05:50.326Z,14.59
2017-09-07T06:06:30.953Z,14.53
2017-09-07T06:07:11.518Z,14.59
2017-09-07T06:07:52.090Z,14.53
2017-09-07T06:08:32.655Z,14.59
2017-09-07T06:09:13.215Z,14.45
2017-09-07T06:09:53.800Z,14.45
2017-09-07T06:10:34.467Z,14.5
2017-09-07T06:11:15.041Z,14.51
2017-09-07T06:11:55.604Z,14.54
2017-09-07T06:12:36.174Z,14.51
2017-09-07T06:13:16.745Z,14.62
2017-09-07T06:13:57.334Z,14.53
2017-09-07T06:14:37.910Z,14.53
2017-09-07T06:15:18.482Z,14.6
2017-09-07T06:15:59.056Z,14.5
2017-09-07T06:16:39.619Z,14.48
2017-09-07T06:17:20.182Z,14.5
2017-09-07T06:18:00.755Z,14.59
2017-09-07T06:18:41.350Z,14.62
2017-09-07T06:19:21.911Z,14.5
2017-09-07T06:20:02.476Z,14.5
2017-09-07T06:20:43.052Z,14.54
2017-09-07T06:21:23.619Z,14.58
2017-09-07T06:22:04.184Z,14.55
2017-09-07T06:22:44.762Z,14.55
2017-09-07T06:23:25.332Z,14.62
2017-09-07T06:24:05.927Z,14.59
2017-09-07T06:24:46.494Z,14.55
2017-09-07T06:25:27.070Z,14.6
2017-09-07T06:26:07.697Z,14.58
2017-09-07T06:26:48.249Z,14.6
2017-09-07T06:27:28.875Z,14.6
2017-09-07T06:28:09.448Z,14.66
2017-09-07T06:28:50.014Z,14.7
2017-09-07T06:29:30.597Z,14.7
2017-09-07T06:30:11.178Z,14.58
2017-09-07T06:30:51.750Z,14.66
2017-09-07T06:31:32.305Z,14.7
2017-09-07T06:32:12.869Z,14.66
2017-09-07T06:32:53.440Z,14.69
2017-09-07T06:33:34.469Z,14.72
2017-09-07T06:34:15.102Z,14.63
2017-09-07T06:34:55.694Z,14.66
2017-09-07T06:35:36.287Z,14.66
2017-09-07T06:36:16.851Z,14.72
2017-09-07T06:36:57.421Z,14.68
2017-09-07T06:37:38.005Z,14.65
2017-09-07T06:38:18.587Z,14.7
2017-09-07T06:38:59.159Z,14.66
2017-09-07T06:39:39.754Z,14.68
2017-09-07T06:40:20.321Z,14.69
2017-09-07T06:41:00.888Z,14.69
2017-09-07T06:41:41.469Z,14.68
2017-09-07T06:42:22.025Z,14.78
2017-09-07T06:43:02.583Z,14.66
2017-09-07T06:43:43.166Z,14.66
2017-09-07T06:44:23.742Z,14.79
2017-09-07T06:45:04.319Z,14.65
2017-09-07T06:45:44.886Z,14.72
2017-09-07T06:46:25.500Z,14.69
2017-09-07T06:47:06.072Z,14.68
2017-09-07T06:47:46.657Z,14.66
2017-09-07T06:48:27.230Z,14.72
2017-09-07T06:49:07.802Z,14.69
2017-09-07T06:49:48.370Z,14.7
2017-09-07T06:50:28.957Z,14.72
2017-09-07T06:51:09.521Z,14.79
2017-09-07T06:51:50.097Z,14.7
2017-09-07T06:52:31.256Z,14.81
2017-09-07T06:53:11.820Z,14.81
2017-09-07T06:53:52.384Z,14.82
2017-09-07T06:54:32.949Z,14.78
2017-09-07T06:55:13.525Z,14.89
2017-09-07T06:55:54.106Z,14.91
2017-09-07T06:56:34.678Z,14.85
2017-09-07T06:57:15.235Z,14.89
2017-09-07T06:57:55.831Z,14.99
2017-09-07T06:58:36.414Z,14.96
2017-09-07T06:59:16.990Z,15.03
2017-09-07T06:59:57.553Z,15.07
2017-09-07T07:00:38.126Z,15.03
2017-09-07T07:01:18.711Z,15.09
2017-09-07T07:01:59.266Z,15
2017-09-07T07:02:39.841Z,14.97
2017-09-07T07:03:20.526Z,14.96
2017-09-07T07:04:01.098Z,15
2017-09-07T07:04:41.667Z,15
2017-09-07T07:05:22.222Z,15
2017-09-07T07:06:02.807Z,15
2017-09-07T07:06:43.371Z,15.04
2017-09-07T07:07:23.934Z,14.99
2017-09-07T07:08:04.519Z,14.91
2017-09-07T07:08:45.192Z,14.99
2017-09-07T07:09:25.765Z,14.97
2017-09-07T07:10:06.340Z,14.99
2017-09-07T07:10:46.981Z,14.96
2017-09-07T07:11:27.617Z,14.94
2017-09-07T07:12:08.211Z,14.94
2017-09-07T07:12:48.782Z,14.97
2017-09-07T07:13:29.391Z,14.97
2017-09-07T07:14:09.994Z,14.97
2017-09-07T07:14:50.576Z,14.96
2017-09-07T07:15:31.162Z,15.02
2017-09-07T07:16:11.720Z,14.99
2017-09-07T07:16:52.296Z,15.06
2017-09-07T07:17:32.894Z,15.07
2017-09-07T07:18:13.471Z,15.07
2017-09-07T07:18:54.074Z,15.11
2017-09-07T07:19:34.669Z,15.09
2017-09-07T07:20:15.250Z,15.24
2017-09-07T07:20:56.231Z,15.29
2017-09-07T07:21:36.803Z,15.35
2017-09-07T07:22:17.380Z,15.54
2017-09-07T07:22:57.965Z,15.59
2017-09-07T07:23:38.558Z,15.77
2017-09-07T07:24:19.211Z,15.83
2017-09-07T07:24:59.812Z,15.94
2017-09-07T07:25:40.556Z,15.95
2017-09-07T07:26:21.119Z,15.98
2017-09-07T07:27:01.690Z,15.95
2017-09-07T07:27:42.256Z,15.92
2017-09-07T07:28:22.822Z,16.01
2017-09-07T07:29:03.397Z,16
2017-09-07T07:29:43.983Z,16.01
2017-09-07T07:30:24.554Z,16.05
2017-09-07T07:31:05.129Z,15.97
2017-09-07T07:31:45.716Z,16.08
2017-09-07T07:32:26.280Z,15.95
2017-09-07T07:33:06.844Z,15.92
2017-09-07T07:33:47.425Z,15.91
2017-09-07T07:34:28.021Z,15.92
2017-09-07T07:35:08.812Z,15.91
2017-09-07T07:35:49.392Z,15.98
2017-09-07T07:36:30.120Z,16.05
2017-09-07T07:37:10.765Z,16.28
2017-09-07T07:37:51.344Z,16.33
2017-09-07T07:38:31.933Z,16.56
2017-09-07T07:39:12.500Z,16.58
2017-09-07T07:39:53.097Z,16.83
2017-09-07T07:40:33.680Z,17.01
2017-09-07T07:41:14.270Z,17.23
2017-09-07T07:41:54.854Z,17.42
2017-09-07T07:42:35.436Z,17.59
2017-09-07T07:43:16.093Z,17.8
2017-09-07T07:43:56.676Z,18.01
2017-09-07T07:44:37.255Z,18.16
2017-09-07T07:45:17.847Z,18.18
2017-09-07T07:45:58.452Z,18.28
2017-09-07T07:46:39.018Z,18.18
2017-09-07T07:47:19.601Z,18.15
2017-09-07T07:48:00.178Z,18.11
2017-09-07T07:48:40.782Z,18.15
2017-09-07T07:49:21.348Z,18.11
2017-09-07T07:50:01.937Z,17.94
2017-09-07T07:50:42.521Z,17.9
2017-09-07T07:51:23.090Z,17.76
2017-09-07T07:52:03.832Z,17.64
2017-09-07T07:52:44.408Z,17.67
2017-09-07T07:53:24.993Z,17.67
2017-09-07T07:54:05.581Z,17.48
2017-09-07T07:54:46.149Z,17.44
2017-09-07T07:55:26.711Z,17.39
2017-09-07T07:56:07.396Z,17.41
2017-09-07T07:56:47.982Z,17.31
2017-09-07T07:57:28.577Z,17.34
2017-09-07T07:58:09.161Z,17.48
2017-09-07T07:58:49.792Z,17.54
2017-09-07T07:59:30.361Z,17.78
2017-09-07T08:00:11.042Z,17.82
2017-09-07T08:00:51.631Z,17.9
2017-09-07T08:01:32.314Z,17.92
2017-09-07T08:02:13.969Z,17.94
2017-09-07T08:02:54.525Z,17.83
2017-09-07T08:03:35.155Z,17.89
2017-09-07T08:04:15.676Z,17.74
2017-09-07T08:04:56.244Z,17.78
2017-09-07T08:05:36.830Z,17.6
2017-09-07T08:06:17.391Z,17.64
2017-09-07T08:06:57.965Z,17.46
2017-09-07T08:07:38.596Z,17.45
2017-09-07T08:08:19.165Z,17.49
2017-09-07T08:08:59.757Z,17.33
2017-09-07T08:09:40.328Z,17.34
2017-09-07T08:10:20.941Z,17.27
2017-09-07T08:11:01.535Z,17.2
2017-09-07T08:11:42.086Z,17.14
2017-09-07T08:12:22.658Z,17.02
2017-09-07T08:13:03.226Z,17.04
2017-09-07T08:13:43.793Z,16.93
2017-09-07T08:14:24.365Z,16.87
2017-09-07T08:15:04.937Z,16.93
2017-09-07T08:15:45.511Z,16.84
2017-09-07T08:16:26.078Z,16.94
2017-09-07T08:17:06.646Z,16.89
2017-09-07T08:17:47.240Z,16.86
2017-09-07T08:18:27.808Z,16.86
2017-09-07T08:19:08.389Z,16.84
2017-09-07T08:19:48.956Z,16.79
2017-09-07T08:20:29.525Z,16.74
2017-09-07T08:21:10.106Z,16.71
2017-09-07T08:21:50.685Z,16.71
2017-09-07T08:22:31.266Z,16.76
2017-09-07T08:23:11.855Z,16.74
2017-09-07T08:23:52.418Z,16.83
2017-09-07T08:24:33.018Z,16.78
2017-09-07T08:25:13.579Z,16.76
2017-09-07T08:25:54.148Z,16.76
2017-09-07T08:26:34.725Z,16.81
2017-09-07T08:27:15.303Z,16.81
2017-09-07T08:27:55.863Z,16.78
2017-09-07T08:28:36.450Z,16.81
2017-09-07T08:29:17.031Z,16.96
2017-09-07T08:29:57.613Z,17.01
2017-09-07T08:30:38.190Z,17.14
2017-09-07T08:31:18.788Z,17.22
2017-09-07T08:31:59.331Z,17.31
2017-09-07T08:32:39.926Z,17.49
2017-09-07T08:33:20.492Z,17.64
2017-09-07T08:34:01.059Z,17.78
2017-09-07T08:34:41.643Z,17.94
2017-09-07T08:35:22.207Z,17.92
2017-09-07T08:36:02.776Z,18.05
2017-09-07T08:36:43.375Z,18.04
2017-09-07T08:37:23.938Z,18.01
2017-09-07T08:38:04.528Z,18.07
2017-09-07T08:38:45.100Z,18.08
2017-09-07T08:39:25.661Z,18.01
2017-09-07T08:40:06.244Z,18.01
2017-09-07T08:40:46.806Z,17.98
2017-09-07T08:41:27.374Z,18.03
2017-09-07T08:42:07.941Z,17.95
2017-09-07T08:42:48.524Z,17.87
2017-09-07T08:43:29.104Z,17.86
2017-09-07T08:44:09.693Z,17.89
2017-09-07T08:44:50.311Z,17.86
2017-09-07T08:45:30.894Z,17.87